sensor_id;sensor_type;location;lat;lon;timestamp;P1;durP1;ratioP1;P2;durP2;ratioP2
70832;SDS011;71099;59.528;17.886;2023-12-20T00:01:16;6.38;;;2.80;;
70832;SDS011;71099;59.528;17.886;2023-12-20T00:03:42;12.60;;;2.47;;
70832;SDS011;71099;59.528;17.886;2023-12-20T00:06:07;12.68;;;1.92;;
70832;SDS011;71099;59.528;17.886;2023-12-20T00:08:33;6.07;;;1.67;;
70832;SDS011;71099;59.528;17.886;2023-12-20T00:10:58;7.30;;;1.88;;
70832;SDS011;71099;59.528;17.886;2023-12-20T00:13:23;11.95;;;2.08;;
70832;SDS011;71099;59.528;17.886;2023-12-20T00:15:49;11.90;;;1.77;;
70832;SDS011;71099;59.528;17.886;2023-12-20T00:18:14;13.90;;;2.72;;
70832;SDS011;71099;59.528;17.886;2023-12-20T00:20:40;7.28;;;2.03;;
70832;SDS011;71099;59.528;17.886;2023-12-20T00:23:05;9.50;;;1.65;;
70832;SDS011;71099;59.528;17.886;2023-12-20T00:25:30;16.58;;;3.08;;
70832;SDS011;71099;59.528;17.886;2023-12-20T00:27:56;5.43;;;2.50;;
70832;SDS011;71099;59.528;17.886;2023-12-20T00:30:21;5.15;;;1.85;;
70832;SDS011;71099;59.528;17.886;2023-12-20T00:32:47;8.77;;;1.90;;
70832;SDS011;71099;59.528;17.886;2023-12-20T00:35:15;8.55;;;1.73;;
70832;SDS011;71099;59.528;17.886;2023-12-20T00:37:41;8.93;;;1.27;;
70832;SDS011;71099;59.528;17.886;2023-12-20T00:40:10;9.60;;;1.55;;
70832;SDS011;71099;59.528;17.886;2023-12-20T00:42:35;14.73;;;2.05;;
70832;SDS011;71099;59.528;17.886;2023-12-20T00:45:01;11.10;;;2.47;;
70832;SDS011;71099;59.528;17.886;2023-12-20T00:47:27;5.90;;;1.85;;
70832;SDS011;71099;59.528;17.886;2023-12-20T00:49:53;10.07;;;2.08;;
70832;SDS011;71099;59.528;17.886;2023-12-20T00:52:18;9.20;;;2.40;;
70832;SDS011;71099;59.528;17.886;2023-12-20T00:54:44;11.65;;;2.75;;
70832;SDS011;71099;59.528;17.886;2023-12-20T00:57:09;16.98;;;2.97;;
70832;SDS011;71099;59.528;17.886;2023-12-20T00:59:35;13.13;;;3.35;;
70832;SDS011;71099;59.528;17.886;2023-12-20T01:02:00;13.98;;;3.08;;
70832;SDS011;71099;59.528;17.886;2023-12-20T01:04:26;16.20;;;2.33;;
70832;SDS011;71099;59.528;17.886;2023-12-20T01:06:52;11.40;;;2.00;;
70832;SDS011;71099;59.528;17.886;2023-12-20T01:09:17;12.85;;;2.70;;
70832;SDS011;71099;59.528;17.886;2023-12-20T01:11:43;10.80;;;2.78;;
70832;SDS011;71099;59.528;17.886;2023-12-20T01:14:09;6.85;;;1.30;;
70832;SDS011;71099;59.528;17.886;2023-12-20T01:16:34;11.02;;;2.90;;
70832;SDS011;71099;59.528;17.886;2023-12-20T01:18:59;15.65;;;2.45;;
70832;SDS011;71099;59.528;17.886;2023-12-20T01:21:25;9.32;;;2.33;;
70832;SDS011;71099;59.528;17.886;2023-12-20T01:23:50;10.90;;;1.92;;
70832;SDS011;71099;59.528;17.886;2023-12-20T01:26:16;12.18;;;2.97;;
70832;SDS011;71099;59.528;17.886;2023-12-20T01:28:41;14.93;;;3.22;;
70832;SDS011;71099;59.528;17.886;2023-12-20T01:31:08;12.07;;;2.30;;
70832;SDS011;71099;59.528;17.886;2023-12-20T01:33:33;11.25;;;2.05;;
70832;SDS011;71099;59.528;17.886;2023-12-20T01:35:59;9.82;;;1.63;;
70832;SDS011;71099;59.528;17.886;2023-12-20T01:38:25;9.90;;;3.10;;
70832;SDS011;71099;59.528;17.886;2023-12-20T01:40:50;10.82;;;1.90;;
70832;SDS011;71099;59.528;17.886;2023-12-20T01:43:16;14.23;;;2.75;;
70832;SDS011;71099;59.528;17.886;2023-12-20T01:45:41;10.23;;;2.45;;
70832;SDS011;71099;59.528;17.886;2023-12-20T01:48:07;12.85;;;3.78;;
70832;SDS011;71099;59.528;17.886;2023-12-20T01:50:34;11.30;;;2.00;;
70832;SDS011;71099;59.528;17.886;2023-12-20T01:53:01;10.82;;;2.08;;
70832;SDS011;71099;59.528;17.886;2023-12-20T01:55:29;13.60;;;2.17;;
70832;SDS011;71099;59.528;17.886;2023-12-20T01:57:57;18.30;;;2.60;;
70832;SDS011;71099;59.528;17.886;2023-12-20T02:00:24;12.02;;;2.10;;
70832;SDS011;71099;59.528;17.886;2023-12-20T02:02:52;8.88;;;2.42;;
70832;SDS011;71099;59.528;17.886;2023-12-20T02:05:20;18.65;;;1.80;;
70832;SDS011;71099;59.528;17.886;2023-12-20T02:07:47;7.50;;;1.85;;
70832;SDS011;71099;59.528;17.886;2023-12-20T02:10:12;12.00;;;2.70;;
70832;SDS011;71099;59.528;17.886;2023-12-20T02:12:38;9.82;;;2.00;;
70832;SDS011;71099;59.528;17.886;2023-12-20T02:15:03;12.00;;;2.40;;
70832;SDS011;71099;59.528;17.886;2023-12-20T02:17:30;12.80;;;2.30;;
70832;SDS011;71099;59.528;17.886;2023-12-20T02:19:56;15.48;;;1.88;;
70832;SDS011;71099;59.528;17.886;2023-12-20T02:22:22;20.15;;;2.70;;
70832;SDS011;71099;59.528;17.886;2023-12-20T02:24:47;14.60;;;2.17;;
70832;SDS011;71099;59.528;17.886;2023-12-20T02:27:13;18.45;;;3.15;;
70832;SDS011;71099;59.528;17.886;2023-12-20T02:29:40;12.13;;;1.50;;
70832;SDS011;71099;59.528;17.886;2023-12-20T02:32:06;14.38;;;4.13;;
70832;SDS011;71099;59.528;17.886;2023-12-20T02:34:31;23.05;;;4.00;;
70832;SDS011;71099;59.528;17.886;2023-12-20T02:36:56;10.02;;;1.77;;
70832;SDS011;71099;59.528;17.886;2023-12-20T02:39:22;17.58;;;4.50;;
70832;SDS011;71099;59.528;17.886;2023-12-20T02:41:48;11.80;;;3.05;;
70832;SDS011;71099;59.528;17.886;2023-12-20T02:44:13;17.52;;;4.25;;
70832;SDS011;71099;59.528;17.886;2023-12-20T02:46:39;7.65;;;2.30;;
70832;SDS011;71099;59.528;17.886;2023-12-20T02:49:05;11.95;;;2.42;;
70832;SDS011;71099;59.528;17.886;2023-12-20T02:51:31;11.20;;;1.77;;
70832;SDS011;71099;59.528;17.886;2023-12-20T02:53:56;8.35;;;1.80;;
70832;SDS011;71099;59.528;17.886;2023-12-20T02:56:22;15.95;;;2.08;;
70832;SDS011;71099;59.528;17.886;2023-12-20T02:58:47;12.15;;;2.90;;
70832;SDS011;71099;59.528;17.886;2023-12-20T03:01:12;20.42;;;4.10;;
70832;SDS011;71099;59.528;17.886;2023-12-20T03:03:38;11.00;;;2.55;;
70832;SDS011;71099;59.528;17.886;2023-12-20T03:06:03;12.63;;;2.65;;
70832;SDS011;71099;59.528;17.886;2023-12-20T03:08:29;10.23;;;2.25;;
70832;SDS011;71099;59.528;17.886;2023-12-20T03:10:54;15.93;;;2.78;;
70832;SDS011;71099;59.528;17.886;2023-12-20T03:13:19;12.65;;;2.78;;
70832;SDS011;71099;59.528;17.886;2023-12-20T03:15:45;12.10;;;3.15;;
70832;SDS011;71099;59.528;17.886;2023-12-20T03:18:11;7.60;;;2.15;;
70832;SDS011;71099;59.528;17.886;2023-12-20T03:20:36;9.77;;;1.77;;
70832;SDS011;71099;59.528;17.886;2023-12-20T03:23:02;14.43;;;1.95;;
70832;SDS011;71099;59.528;17.886;2023-12-20T03:25:28;10.43;;;2.10;;
70832;SDS011;71099;59.528;17.886;2023-12-20T03:27:53;16.05;;;2.88;;
70832;SDS011;71099;59.528;17.886;2023-12-20T03:30:19;14.10;;;3.03;;
70832;SDS011;71099;59.528;17.886;2023-12-20T03:32:44;27.80;;;4.05;;
70832;SDS011;71099;59.528;17.886;2023-12-20T03:35:10;14.48;;;3.95;;
70832;SDS011;71099;59.528;17.886;2023-12-20T03:37:36;8.55;;;2.28;;
70832;SDS011;71099;59.528;17.886;2023-12-20T03:40:01;14.63;;;2.72;;
70832;SDS011;71099;59.528;17.886;2023-12-20T03:42:27;11.77;;;2.20;;
70832;SDS011;71099;59.528;17.886;2023-12-20T03:44:53;14.75;;;3.05;;
70832;SDS011;71099;59.528;17.886;2023-12-20T03:47:18;11.30;;;3.75;;
70832;SDS011;71099;59.528;17.886;2023-12-20T03:49:44;15.07;;;1.67;;
70832;SDS011;71099;59.528;17.886;2023-12-20T03:52:09;15.30;;;2.80;;
70832;SDS011;71099;59.528;17.886;2023-12-20T03:54:35;7.68;;;1.73;;
70832;SDS011;71099;59.528;17.886;2023-12-20T03:57:00;18.63;;;2.78;;
70832;SDS011;71099;59.528;17.886;2023-12-20T03:59:26;13.57;;;3.28;;
70832;SDS011;71099;59.528;17.886;2023-12-20T04:01:52;14.65;;;2.67;;
70832;SDS011;71099;59.528;17.886;2023-12-20T04:04:17;12.68;;;2.25;;
70832;SDS011;71099;59.528;17.886;2023-12-20T04:06:43;17.48;;;2.72;;
70832;SDS011;71099;59.528;17.886;2023-12-20T04:09:08;15.20;;;2.28;;
70832;SDS011;71099;59.528;17.886;2023-12-20T04:11:37;11.68;;;1.38;;
70832;SDS011;71099;59.528;17.886;2023-12-20T04:14:02;9.00;;;2.17;;
70832;SDS011;71099;59.528;17.886;2023-12-20T04:16:29;9.63;;;2.40;;
70832;SDS011;71099;59.528;17.886;2023-12-20T04:18:55;8.52;;;2.60;;
70832;SDS011;71099;59.528;17.886;2023-12-20T04:21:20;14.75;;;2.08;;
70832;SDS011;71099;59.528;17.886;2023-12-20T04:23:46;11.70;;;2.03;;
70832;SDS011;71099;59.528;17.886;2023-12-20T04:26:11;13.40;;;1.88;;
70832;SDS011;71099;59.528;17.886;2023-12-20T04:28:37;10.73;;;1.92;;
70832;SDS011;71099;59.528;17.886;2023-12-20T04:31:02;9.70;;;2.72;;
70832;SDS011;71099;59.528;17.886;2023-12-20T04:33:27;8.73;;;2.08;;
70832;SDS011;71099;59.528;17.886;2023-12-20T04:35:53;11.45;;;2.00;;
70832;SDS011;71099;59.528;17.886;2023-12-20T04:38:18;8.93;;;1.90;;
70832;SDS011;71099;59.528;17.886;2023-12-20T04:40:44;19.33;;;2.70;;
70832;SDS011;71099;59.528;17.886;2023-12-20T04:43:09;7.22;;;1.98;;
70832;SDS011;71099;59.528;17.886;2023-12-20T04:45:35;7.60;;;2.20;;
70832;SDS011;71099;59.528;17.886;2023-12-20T04:48:01;20.52;;;2.67;;
70832;SDS011;71099;59.528;17.886;2023-12-20T04:50:27;16.02;;;3.95;;
70832;SDS011;71099;59.528;17.886;2023-12-20T04:52:52;14.25;;;2.78;;
70832;SDS011;71099;59.528;17.886;2023-12-20T04:55:18;7.18;;;2.63;;
70832;SDS011;71099;59.528;17.886;2023-12-20T04:57:43;12.63;;;2.45;;
70832;SDS011;71099;59.528;17.886;2023-12-20T05:00:09;15.55;;;3.90;;
70832;SDS011;71099;59.528;17.886;2023-12-20T05:02:35;7.55;;;2.22;;
70832;SDS011;71099;59.528;17.886;2023-12-20T05:05:01;10.23;;;2.15;;
70832;SDS011;71099;59.528;17.886;2023-12-20T05:07:26;16.90;;;3.33;;
70832;SDS011;71099;59.528;17.886;2023-12-20T05:09:52;12.30;;;2.92;;
70832;SDS011;71099;59.528;17.886;2023-12-20T05:12:17;21.83;;;2.70;;
70832;SDS011;71099;59.528;17.886;2023-12-20T05:14:42;9.70;;;1.80;;
70832;SDS011;71099;59.528;17.886;2023-12-20T05:17:08;10.82;;;2.05;;
70832;SDS011;71099;59.528;17.886;2023-12-20T05:19:33;10.10;;;1.73;;
70832;SDS011;71099;59.528;17.886;2023-12-20T05:22:02;7.60;;;2.03;;
70832;SDS011;71099;59.528;17.886;2023-12-20T05:24:28;8.63;;;1.98;;
70832;SDS011;71099;59.528;17.886;2023-12-20T05:26:53;11.05;;;3.08;;
70832;SDS011;71099;59.528;17.886;2023-12-20T05:29:19;7.55;;;2.35;;
70832;SDS011;71099;59.528;17.886;2023-12-20T05:31:45;15.75;;;2.90;;
70832;SDS011;71099;59.528;17.886;2023-12-20T05:34:10;8.60;;;2.20;;
70832;SDS011;71099;59.528;17.886;2023-12-20T05:36:36;8.07;;;2.42;;
70832;SDS011;71099;59.528;17.886;2023-12-20T05:39:02;12.35;;;2.28;;
70832;SDS011;71099;59.528;17.886;2023-12-20T05:41:30;9.25;;;2.05;;
70832;SDS011;71099;59.528;17.886;2023-12-20T05:43:56;4.45;;;2.22;;
70832;SDS011;71099;59.528;17.886;2023-12-20T05:46:24;10.95;;;2.30;;
70832;SDS011;71099;59.528;17.886;2023-12-20T05:48:52;9.45;;;2.53;;
70832;SDS011;71099;59.528;17.886;2023-12-20T05:51:18;9.60;;;2.30;;
70832;SDS011;71099;59.528;17.886;2023-12-20T05:53:44;7.43;;;2.65;;
70832;SDS011;71099;59.528;17.886;2023-12-20T05:56:09;8.23;;;2.15;;
70832;SDS011;71099;59.528;17.886;2023-12-20T05:58:35;16.17;;;2.20;;
70832;SDS011;71099;59.528;17.886;2023-12-20T06:01:03;6.00;;;1.90;;
70832;SDS011;71099;59.528;17.886;2023-12-20T06:03:29;8.85;;;2.80;;
70832;SDS011;71099;59.528;17.886;2023-12-20T06:05:55;16.38;;;2.88;;
70832;SDS011;71099;59.528;17.886;2023-12-20T06:08:21;6.00;;;2.10;;
70832;SDS011;71099;59.528;17.886;2023-12-20T06:10:46;3.28;;;1.80;;
70832;SDS011;71099;59.528;17.886;2023-12-20T06:13:12;10.07;;;3.33;;
70832;SDS011;71099;59.528;17.886;2023-12-20T06:15:38;6.45;;;2.50;;
70832;SDS011;71099;59.528;17.886;2023-12-20T06:18:04;8.27;;;2.30;;
70832;SDS011;71099;59.528;17.886;2023-12-20T06:20:29;7.72;;;3.30;;
70832;SDS011;71099;59.528;17.886;2023-12-20T06:22:55;8.82;;;2.60;;
70832;SDS011;71099;59.528;17.886;2023-12-20T06:25:20;9.43;;;2.60;;
70832;SDS011;71099;59.528;17.886;2023-12-20T06:27:45;8.65;;;2.25;;
70832;SDS011;71099;59.528;17.886;2023-12-20T06:30:11;11.02;;;2.95;;
70832;SDS011;71099;59.528;17.886;2023-12-20T06:32:36;9.65;;;3.85;;
70832;SDS011;71099;59.528;17.886;2023-12-20T06:35:03;5.68;;;3.00;;
70832;SDS011;71099;59.528;17.886;2023-12-20T06:37:30;6.28;;;3.10;;
70832;SDS011;71099;59.528;17.886;2023-12-20T06:39:55;7.68;;;2.97;;
70832;SDS011;71099;59.528;17.886;2023-12-20T06:42:21;7.93;;;2.35;;
70832;SDS011;71099;59.528;17.886;2023-12-20T06:44:47;8.63;;;2.95;;
70832;SDS011;71099;59.528;17.886;2023-12-20T06:47:13;7.47;;;3.72;;
70832;SDS011;71099;59.528;17.886;2023-12-20T06:49:39;12.32;;;3.40;;
70832;SDS011;71099;59.528;17.886;2023-12-20T06:52:05;4.78;;;2.92;;
70832;SDS011;71099;59.528;17.886;2023-12-20T06:54:30;15.90;;;3.78;;
70832;SDS011;71099;59.528;17.886;2023-12-20T06:56:56;8.57;;;3.63;;
70832;SDS011;71099;59.528;17.886;2023-12-20T06:59:21;10.65;;;3.45;;
70832;SDS011;71099;59.528;17.886;2023-12-20T07:01:47;13.52;;;3.80;;
70832;SDS011;71099;59.528;17.886;2023-12-20T07:04:14;11.88;;;4.75;;
70832;SDS011;71099;59.528;17.886;2023-12-20T07:06:39;9.15;;;3.72;;
70832;SDS011;71099;59.528;17.886;2023-12-20T07:09:05;11.32;;;4.22;;
70832;SDS011;71099;59.528;17.886;2023-12-20T07:11:31;48.22;;;6.00;;
70832;SDS011;71099;59.528;17.886;2023-12-20T07:13:56;40.25;;;5.43;;
70832;SDS011;71099;59.528;17.886;2023-12-20T07:16:22;18.50;;;3.85;;
70832;SDS011;71099;59.528;17.886;2023-12-20T07:18:47;8.70;;;3.17;;
70832;SDS011;71099;59.528;17.886;2023-12-20T07:21:13;10.63;;;3.65;;
70832;SDS011;71099;59.528;17.886;2023-12-20T07:23:38;9.75;;;2.67;;
70832;SDS011;71099;59.528;17.886;2023-12-20T07:26:04;11.02;;;3.22;;
70832;SDS011;71099;59.528;17.886;2023-12-20T07:28:29;11.93;;;3.50;;
70832;SDS011;71099;59.528;17.886;2023-12-20T07:30:55;24.02;;;3.78;;
70832;SDS011;71099;59.528;17.886;2023-12-20T07:33:20;15.77;;;3.20;;
70832;SDS011;71099;59.528;17.886;2023-12-20T07:35:46;17.20;;;3.50;;
70832;SDS011;71099;59.528;17.886;2023-12-20T07:38:12;24.83;;;3.17;;
70832;SDS011;71099;59.528;17.886;2023-12-20T07:40:37;14.77;;;3.15;;
70832;SDS011;71099;59.528;17.886;2023-12-20T07:43:03;19.25;;;4.00;;
70832;SDS011;71099;59.528;17.886;2023-12-20T07:45:29;9.40;;;2.88;;
70832;SDS011;71099;59.528;17.886;2023-12-20T07:47:54;10.35;;;3.35;;
70832;SDS011;71099;59.528;17.886;2023-12-20T07:50:20;17.80;;;2.80;;
70832;SDS011;71099;59.528;17.886;2023-12-20T07:52:45;15.20;;;2.47;;
70832;SDS011;71099;59.528;17.886;2023-12-20T07:55:10;8.38;;;2.33;;
70832;SDS011;71099;59.528;17.886;2023-12-20T07:57:36;11.65;;;2.22;;
70832;SDS011;71099;59.528;17.886;2023-12-20T08:00:01;6.20;;;3.05;;
70832;SDS011;71099;59.528;17.886;2023-12-20T08:02:28;9.38;;;2.42;;
70832;SDS011;71099;59.528;17.886;2023-12-20T08:04:54;12.98;;;2.85;;
70832;SDS011;71099;59.528;17.886;2023-12-20T08:07:19;7.50;;;3.33;;
70832;SDS011;71099;59.528;17.886;2023-12-20T08:09:45;8.77;;;3.60;;
70832;SDS011;71099;59.528;17.886;2023-12-20T08:12:11;15.00;;;4.55;;
70832;SDS011;71099;59.528;17.886;2023-12-20T08:14:36;9.80;;;3.58;;
70832;SDS011;71099;59.528;17.886;2023-12-20T08:17:02;13.40;;;3.90;;
70832;SDS011;71099;59.528;17.886;2023-12-20T08:19:28;15.30;;;5.75;;
70832;SDS011;71099;59.528;17.886;2023-12-20T08:21:53;16.40;;;5.28;;
70832;SDS011;71099;59.528;17.886;2023-12-20T08:24:18;21.58;;;6.78;;
70832;SDS011;71099;59.528;17.886;2023-12-20T08:26:44;12.52;;;5.30;;
70832;SDS011;71099;59.528;17.886;2023-12-20T08:29:12;29.70;;;6.18;;
70832;SDS011;71099;59.528;17.886;2023-12-20T08:31:38;16.35;;;6.30;;
70832;SDS011;71099;59.528;17.886;2023-12-20T08:34:03;10.73;;;5.55;;
70832;SDS011;71099;59.528;17.886;2023-12-20T08:36:29;15.00;;;5.38;;
70832;SDS011;71099;59.528;17.886;2023-12-20T08:38:54;19.30;;;5.47;;
70832;SDS011;71099;59.528;17.886;2023-12-20T08:41:20;15.35;;;6.88;;
70832;SDS011;71099;59.528;17.886;2023-12-20T08:43:46;14.60;;;5.70;;
70832;SDS011;71099;59.528;17.886;2023-12-20T08:46:11;18.63;;;5.90;;
70832;SDS011;71099;59.528;17.886;2023-12-20T08:48:37;10.50;;;5.68;;
70832;SDS011;71099;59.528;17.886;2023-12-20T08:51:03;19.25;;;6.75;;
70832;SDS011;71099;59.528;17.886;2023-12-20T08:53:29;14.18;;;6.55;;
70832;SDS011;71099;59.528;17.886;2023-12-20T08:55:55;31.23;;;7.38;;
70832;SDS011;71099;59.528;17.886;2023-12-20T08:58:20;19.55;;;7.40;;
70832;SDS011;71099;59.528;17.886;2023-12-20T09:00:45;16.25;;;6.40;;
70832;SDS011;71099;59.528;17.886;2023-12-20T09:03:11;17.10;;;6.30;;
70832;SDS011;71099;59.528;17.886;2023-12-20T09:05:36;14.98;;;6.68;;
70832;SDS011;71099;59.528;17.886;2023-12-20T09:08:02;20.42;;;7.70;;
70832;SDS011;71099;59.528;17.886;2023-12-20T09:10:27;13.85;;;6.90;;
70832;SDS011;71099;59.528;17.886;2023-12-20T09:12:53;13.57;;;6.45;;
70832;SDS011;71099;59.528;17.886;2023-12-20T09:15:26;13.00;;;6.45;;
70832;SDS011;71099;59.528;17.886;2023-12-20T09:17:52;22.35;;;7.22;;
70832;SDS011;71099;59.528;17.886;2023-12-20T09:20:18;19.13;;;7.28;;
70832;SDS011;71099;59.528;17.886;2023-12-20T09:22:44;16.67;;;8.23;;
70832;SDS011;71099;59.528;17.886;2023-12-20T09:25:10;26.80;;;8.40;;
70832;SDS011;71099;59.528;17.886;2023-12-20T09:27:37;21.58;;;7.75;;
70832;SDS011;71099;59.528;17.886;2023-12-20T09:30:03;19.73;;;6.55;;
70832;SDS011;71099;59.528;17.886;2023-12-20T09:32:30;16.10;;;7.15;;
70832;SDS011;71099;59.528;17.886;2023-12-20T09:34:56;11.18;;;6.53;;
70832;SDS011;71099;59.528;17.886;2023-12-20T09:37:21;18.13;;;7.35;;
70832;SDS011;71099;59.528;17.886;2023-12-20T09:39:46;15.15;;;7.72;;
70832;SDS011;71099;59.528;17.886;2023-12-20T09:42:12;23.83;;;8.45;;
70832;SDS011;71099;59.528;17.886;2023-12-20T09:44:46;21.88;;;9.68;;
70832;SDS011;71099;59.528;17.886;2023-12-20T09:47:12;20.65;;;8.32;;
70832;SDS011;71099;59.528;17.886;2023-12-20T09:49:40;16.30;;;7.25;;
70832;SDS011;71099;59.528;17.886;2023-12-20T09:52:08;20.75;;;9.40;;
70832;SDS011;71099;59.528;17.886;2023-12-20T09:54:35;22.55;;;9.00;;
70832;SDS011;71099;59.528;17.886;2023-12-20T09:57:01;26.00;;;8.63;;
70832;SDS011;71099;59.528;17.886;2023-12-20T09:59:26;17.90;;;8.35;;
70832;SDS011;71099;59.528;17.886;2023-12-20T10:01:52;26.88;;;8.40;;
70832;SDS011;71099;59.528;17.886;2023-12-20T10:04:20;22.38;;;10.75;;
70832;SDS011;71099;59.528;17.886;2023-12-20T10:06:46;22.70;;;9.85;;
70832;SDS011;71099;59.528;17.886;2023-12-20T10:09:11;20.17;;;10.20;;
70832;SDS011;71099;59.528;17.886;2023-12-20T10:11:37;20.38;;;9.90;;
70832;SDS011;71099;59.528;17.886;2023-12-20T10:14:04;19.50;;;8.82;;
70832;SDS011;71099;59.528;17.886;2023-12-20T10:16:30;23.30;;;9.80;;
70832;SDS011;71099;59.528;17.886;2023-12-20T10:18:57;25.67;;;10.32;;
70832;SDS011;71099;59.528;17.886;2023-12-20T10:21:23;20.77;;;8.27;;
70832;SDS011;71099;59.528;17.886;2023-12-20T10:23:51;19.70;;;9.32;;
70832;SDS011;71099;59.528;17.886;2023-12-20T10:26:22;27.85;;;9.65;;
70832;SDS011;71099;59.528;17.886;2023-12-20T10:28:55;26.35;;;8.52;;
70832;SDS011;71099;59.528;17.886;2023-12-20T10:31:28;21.52;;;11.13;;
70832;SDS011;71099;59.528;17.886;2023-12-20T10:34:02;19.58;;;9.95;;
70832;SDS011;71099;59.528;17.886;2023-12-20T10:36:29;27.17;;;9.50;;
70832;SDS011;71099;59.528;17.886;2023-12-20T10:38:56;26.42;;;9.48;;
70832;SDS011;71099;59.528;17.886;2023-12-20T10:44:00;28.48;;;10.50;;
70832;SDS011;71099;59.528;17.886;2023-12-20T10:46:27;20.05;;;9.45;;
70832;SDS011;71099;59.528;17.886;2023-12-20T10:48:54;31.17;;;11.55;;
70832;SDS011;71099;59.528;17.886;2023-12-20T10:51:21;26.90;;;10.32;;
70832;SDS011;71099;59.528;17.886;2023-12-20T10:53:48;29.40;;;11.48;;
70832;SDS011;71099;59.528;17.886;2023-12-20T10:56:17;22.77;;;9.63;;
70832;SDS011;71099;59.528;17.886;2023-12-20T10:58:45;25.38;;;10.23;;
70832;SDS011;71099;59.528;17.886;2023-12-20T11:01:14;24.25;;;9.85;;
70832;SDS011;71099;59.528;17.886;2023-12-20T11:04:02;26.77;;;11.10;;
70832;SDS011;71099;59.528;17.886;2023-12-20T11:12:09;23.73;;;10.15;;
70832;SDS011;71099;59.528;17.886;2023-12-20T11:17:20;25.55;;;10.10;;
70832;SDS011;71099;59.528;17.886;2023-12-20T11:22:17;19.38;;;8.60;;
70832;SDS011;71099;59.528;17.886;2023-12-20T11:24:44;20.95;;;8.93;;
70832;SDS011;71099;59.528;17.886;2023-12-20T11:27:09;18.75;;;8.95;;
70832;SDS011;71099;59.528;17.886;2023-12-20T11:29:35;22.00;;;9.18;;
70832;SDS011;71099;59.528;17.886;2023-12-20T11:32:44;19.30;;;8.07;;
70832;SDS011;71099;59.528;17.886;2023-12-20T11:34:50;15.40;;;7.93;;
70832;SDS011;71099;59.528;17.886;2023-12-20T11:37:16;16.58;;;7.80;;
70832;SDS011;71099;59.528;17.886;2023-12-20T11:39:44;15.93;;;8.07;;
70832;SDS011;71099;59.528;17.886;2023-12-20T11:42:10;14.13;;;7.65;;
70832;SDS011;71099;59.528;17.886;2023-12-20T11:44:36;13.43;;;7.60;;
70832;SDS011;71099;59.528;17.886;2023-12-20T11:47:02;20.73;;;8.65;;
70832;SDS011;71099;59.528;17.886;2023-12-20T11:49:28;15.73;;;7.35;;
70832;SDS011;71099;59.528;17.886;2023-12-20T11:51:55;19.13;;;8.10;;
70832;SDS011;71099;59.528;17.886;2023-12-20T11:54:21;19.88;;;8.30;;
70832;SDS011;71099;59.528;17.886;2023-12-20T11:56:47;20.27;;;8.02;;
70832;SDS011;71099;59.528;17.886;2023-12-20T11:59:13;13.10;;;7.80;;
70832;SDS011;71099;59.528;17.886;2023-12-20T12:01:39;13.48;;;7.40;;
70832;SDS011;71099;59.528;17.886;2023-12-20T12:04:05;12.95;;;5.35;;
70832;SDS011;71099;59.528;17.886;2023-12-20T12:06:31;14.48;;;6.80;;
70832;SDS011;71099;59.528;17.886;2023-12-20T12:08:57;16.60;;;5.97;;
70832;SDS011;71099;59.528;17.886;2023-12-20T12:11:22;12.25;;;6.28;;
70832;SDS011;71099;59.528;17.886;2023-12-20T12:13:48;12.88;;;6.10;;
70832;SDS011;71099;59.528;17.886;2023-12-20T12:16:20;11.23;;;5.90;;
70832;SDS011;71099;59.528;17.886;2023-12-20T12:18:46;11.52;;;6.97;;
70832;SDS011;71099;59.528;17.886;2023-12-20T12:21:20;11.07;;;5.57;;
70832;SDS011;71099;59.528;17.886;2023-12-20T12:23:46;9.38;;;5.63;;
70832;SDS011;71099;59.528;17.886;2023-12-20T12:26:11;11.50;;;5.72;;
70832;SDS011;71099;59.528;17.886;2023-12-20T12:28:37;11.38;;;5.85;;
70832;SDS011;71099;59.528;17.886;2023-12-20T12:31:06;8.68;;;5.10;;
70832;SDS011;71099;59.528;17.886;2023-12-20T12:33:31;8.00;;;4.72;;
70832;SDS011;71099;59.528;17.886;2023-12-20T12:35:57;8.73;;;3.92;;
70832;SDS011;71099;59.528;17.886;2023-12-20T12:38:24;8.27;;;4.35;;
70832;SDS011;71099;59.528;17.886;2023-12-20T12:40:50;5.88;;;4.03;;
70832;SDS011;71099;59.528;17.886;2023-12-20T12:43:15;6.95;;;4.32;;
70832;SDS011;71099;59.528;17.886;2023-12-20T12:45:41;9.52;;;4.50;;
70832;SDS011;71099;59.528;17.886;2023-12-20T12:48:06;11.77;;;5.93;;
70832;SDS011;71099;59.528;17.886;2023-12-20T12:50:32;5.53;;;3.35;;
70832;SDS011;71099;59.528;17.886;2023-12-20T12:52:57;6.50;;;4.20;;
70832;SDS011;71099;59.528;17.886;2023-12-20T12:55:23;8.95;;;3.65;;
70832;SDS011;71099;59.528;17.886;2023-12-20T12:57:48;5.85;;;3.90;;
70832;SDS011;71099;59.528;17.886;2023-12-20T13:00:14;10.13;;;3.97;;
70832;SDS011;71099;59.528;17.886;2023-12-20T13:02:39;7.07;;;3.75;;
70832;SDS011;71099;59.528;17.886;2023-12-20T13:05:08;7.28;;;3.67;;
70832;SDS011;71099;59.528;17.886;2023-12-20T13:07:33;5.22;;;3.53;;
70832;SDS011;71099;59.528;17.886;2023-12-20T13:09:59;7.25;;;2.90;;
70832;SDS011;71099;59.528;17.886;2023-12-20T13:12:25;4.50;;;3.47;;
70832;SDS011;71099;59.528;17.886;2023-12-20T13:14:51;5.97;;;3.42;;
70832;SDS011;71099;59.528;17.886;2023-12-20T13:17:16;5.45;;;2.78;;
70832;SDS011;71099;59.528;17.886;2023-12-20T13:19:44;5.72;;;3.40;;
70832;SDS011;71099;59.528;17.886;2023-12-20T13:22:09;4.85;;;2.97;;
70832;SDS011;71099;59.528;17.886;2023-12-20T13:24:36;4.22;;;2.67;;
70832;SDS011;71099;59.528;17.886;2023-12-20T13:27:01;3.25;;;2.45;;
70832;SDS011;71099;59.528;17.886;2023-12-20T13:29:26;5.22;;;4.18;;
70832;SDS011;71099;59.528;17.886;2023-12-20T13:31:52;4.22;;;3.00;;
70832;SDS011;71099;59.528;17.886;2023-12-20T13:34:18;5.95;;;3.55;;
70832;SDS011;71099;59.528;17.886;2023-12-20T13:36:43;4.28;;;2.78;;
70832;SDS011;71099;59.528;17.886;2023-12-20T13:39:12;5.88;;;3.30;;
70832;SDS011;71099;59.528;17.886;2023-12-20T13:41:38;4.95;;;3.28;;
70832;SDS011;71099;59.528;17.886;2023-12-20T13:44:04;4.30;;;3.00;;
70832;SDS011;71099;59.528;17.886;2023-12-20T13:46:30;4.03;;;3.10;;
70832;SDS011;71099;59.528;17.886;2023-12-20T13:48:56;4.28;;;3.08;;
70832;SDS011;71099;59.528;17.886;2023-12-20T13:51:21;4.85;;;3.10;;
70832;SDS011;71099;59.528;17.886;2023-12-20T13:53:47;4.80;;;2.85;;
70832;SDS011;71099;59.528;17.886;2023-12-20T13:56:13;5.80;;;3.33;;
70832;SDS011;71099;59.528;17.886;2023-12-20T13:58:39;5.13;;;3.72;;
70832;SDS011;71099;59.528;17.886;2023-12-20T14:01:06;4.07;;;3.03;;
70832;SDS011;71099;59.528;17.886;2023-12-20T14:03:32;4.40;;;3.20;;
70832;SDS011;71099;59.528;17.886;2023-12-20T14:05:58;3.47;;;3.05;;
70832;SDS011;71099;59.528;17.886;2023-12-20T14:08:23;5.15;;;3.58;;
70832;SDS011;71099;59.528;17.886;2023-12-20T14:10:49;5.38;;;3.38;;
70832;SDS011;71099;59.528;17.886;2023-12-20T14:13:15;3.45;;;2.88;;
70832;SDS011;71099;59.528;17.886;2023-12-20T14:15:40;9.68;;;3.22;;
70832;SDS011;71099;59.528;17.886;2023-12-20T14:18:06;4.22;;;3.35;;
70832;SDS011;71099;59.528;17.886;2023-12-20T14:20:33;3.97;;;3.08;;
70832;SDS011;71099;59.528;17.886;2023-12-20T14:23:01;6.28;;;3.45;;
70832;SDS011;71099;59.528;17.886;2023-12-20T14:25:27;4.35;;;3.40;;
70832;SDS011;71099;59.528;17.886;2023-12-20T14:27:53;5.03;;;3.42;;
70832;SDS011;71099;59.528;17.886;2023-12-20T14:30:18;7.68;;;3.30;;
70832;SDS011;71099;59.528;17.886;2023-12-20T14:32:43;6.80;;;4.18;;